sensor_id;sensor_type;location;lat;lon;timestamp;temperature;humidity
69503;SHT31;56704;54.242;12.442;2023-06-05T00:00:43;11.44;76.47
69503;SHT31;56704;54.242;12.442;2023-06-05T00:03:10;11.31;75.94
69503;SHT31;56704;54.242;12.442;2023-06-05T00:05:37;11.19;75.97
69503;SHT31;56704;54.242;12.442;2023-06-05T00:08:03;10.92;76.17
69503;SHT31;56704;54.242;12.442;2023-06-05T00:10:30;10.60;77.49
69503;SHT31;56704;54.242;12.442;2023-06-05T00:12:58;10.38;77.73
69503;SHT31;56704;54.242;12.442;2023-06-05T00:15:25;10.25;77.48
69503;SHT31;56704;54.242;12.442;2023-06-05T00:17:52;10.18;76.87
69503;SHT31;56704;54.242;12.442;2023-06-05T00:20:20;10.18;76.99
69503;SHT31;56704;54.242;12.442;2023-06-05T00:22:49;10.13;77.30
69503;SHT31;56704;54.242;12.442;2023-06-05T00:25:16;10.11;77.52
69503;SHT31;56704;54.242;12.442;2023-06-05T00:27:42;10.14;77.91
69503;SHT31;56704;54.242;12.442;2023-06-05T00:30:12;10.21;78.28
69503;SHT31;56704;54.242;12.442;2023-06-05T00:32:39;10.22;78.08
69503;SHT31;56704;54.242;12.442;2023-06-05T00:35:07;10.29;77.58
69503;SHT31;56704;54.242;12.442;2023-06-05T00:37:34;10.31;77.79
69503;SHT31;56704;54.242;12.442;2023-06-05T00:40:02;10.30;77.50
69503;SHT31;56704;54.242;12.442;2023-06-05T00:42:29;10.24;77.17
69503;SHT31;56704;54.242;12.442;2023-06-05T00:44:56;10.16;78.06
69503;SHT31;56704;54.242;12.442;2023-06-05T00:47:24;10.03;78.46
69503;SHT31;56704;54.242;12.442;2023-06-05T00:49:52;9.97;78.30
69503;SHT31;56704;54.242;12.442;2023-06-05T00:52:19;9.86;78.05
69503;SHT31;56704;54.242;12.442;2023-06-05T00:54:46;9.80;78.45
69503;SHT31;56704;54.242;12.442;2023-06-05T00:57:13;9.72;78.42
69503;SHT31;56704;54.242;12.442;2023-06-05T00:59:40;9.69;79.00
69503;SHT31;56704;54.242;12.442;2023-06-05T01:02:10;9.63;78.78
69503;SHT31;56704;54.242;12.442;2023-06-05T01:04:39;9.61;79.20
69503;SHT31;56704;54.242;12.442;2023-06-05T01:07:09;9.69;79.33
69503;SHT31;56704;54.242;12.442;2023-06-05T01:09:36;9.76;79.56
69503;SHT31;56704;54.242;12.442;2023-06-05T01:12:07;9.87;79.47
69503;SHT31;56704;54.242;12.442;2023-06-05T01:14:36;10.04;79.21
69503;SHT31;56704;54.242;12.442;2023-06-05T01:17:06;10.10;78.15
69503;SHT31;56704;54.242;12.442;2023-06-05T01:19:34;10.21;77.88
69503;SHT31;56704;54.242;12.442;2023-06-05T01:22:03;10.27;78.16
69503;SHT31;56704;54.242;12.442;2023-06-05T01:24:32;10.36;77.89
69503;SHT31;56704;54.242;12.442;2023-06-05T01:27:05;10.36;77.67
69503;SHT31;56704;54.242;12.442;2023-06-05T01:29:50;10.41;77.93
69503;SHT31;56704;54.242;12.442;2023-06-05T01:32:22;10.41;77.11
69503;SHT31;56704;54.242;12.442;2023-06-05T01:34:53;10.25;77.20
69503;SHT31;56704;54.242;12.442;2023-06-05T01:37:21;10.07;78.25
69503;SHT31;56704;54.242;12.442;2023-06-05T01:39:53;9.99;79.23
69503;SHT31;56704;54.242;12.442;2023-06-05T01:42:21;9.86;79.27
69503;SHT31;56704;54.242;12.442;2023-06-05T01:44:49;9.96;79.48
69503;SHT31;56704;54.242;12.442;2023-06-05T01:47:16;10.07;78.69
69503;SHT31;56704;54.242;12.442;2023-06-05T01:49:43;10.09;78.59
69503;SHT31;56704;54.242;12.442;2023-06-05T01:52:10;10.18;78.45
69503;SHT31;56704;54.242;12.442;2023-06-05T01:54:36;10.13;78.58
69503;SHT31;56704;54.242;12.442;2023-06-05T01:57:05;10.01;78.40
69503;SHT31;56704;54.242;12.442;2023-06-05T01:59:32;9.94;78.61
69503;SHT31;56704;54.242;12.442;2023-06-05T02:01:59;9.86;78.60
69503;SHT31;56704;54.242;12.442;2023-06-05T02:04:28;9.73;78.87
69503;SHT31;56704;54.242;12.442;2023-06-05T02:06:54;9.51;79.49
69503;SHT31;56704;54.242;12.442;2023-06-05T02:09:28;9.45;80.03
69503;SHT31;56704;54.242;12.442;2023-06-05T02:11:58;9.43;80.04
69503;SHT31;56704;54.242;12.442;2023-06-05T02:14:30;9.41;79.86
69503;SHT31;56704;54.242;12.442;2023-06-05T02:17:01;9.36;80.05
69503;SHT31;56704;54.242;12.442;2023-06-05T02:19:27;9.30;80.20
69503;SHT31;56704;54.242;12.442;2023-06-05T02:21:54;9.20;79.72
69503;SHT31;56704;54.242;12.442;2023-06-05T02:24:21;9.17;80.39
69503;SHT31;56704;54.242;12.442;2023-06-05T02:26:48;9.12;80.49
69503;SHT31;56704;54.242;12.442;2023-06-05T02:29:14;9.27;80.61
69503;SHT31;56704;54.242;12.442;2023-06-05T02:31:42;9.38;80.36
69503;SHT31;56704;54.242;12.442;2023-06-05T02:34:10;9.48;80.13
69503;SHT31;56704;54.242;12.442;2023-06-05T02:36:37;9.49;79.81
69503;SHT31;56704;54.242;12.442;2023-06-05T02:39:03;9.48;78.99
69503;SHT31;56704;54.242;12.442;2023-06-05T02:41:30;9.61;80.05
69503;SHT31;56704;54.242;12.442;2023-06-05T02:43:57;9.78;79.90
69503;SHT31;56704;54.242;12.442;2023-06-05T02:46:25;9.78;79.22
69503;SHT31;56704;54.242;12.442;2023-06-05T02:48:53;9.56;79.74
69503;SHT31;56704;54.242;12.442;2023-06-05T02:51:20;9.58;79.58
69503;SHT31;56704;54.242;12.442;2023-06-05T02:53:46;9.59;79.21
69503;SHT31;56704;54.242;12.442;2023-06-05T02:56:13;9.53;78.90
69503;SHT31;56704;54.242;12.442;2023-06-05T02:58:40;9.52;79.38
69503;SHT31;56704;54.242;12.442;2023-06-05T03:01:09;9.61;79.06
69503;SHT31;56704;54.242;12.442;2023-06-05T03:03:36;9.69;78.70
69503;SHT31;56704;54.242;12.442;2023-06-05T03:06:04;9.76;78.21
69503;SHT31;56704;54.242;12.442;2023-06-05T03:08:32;9.72;78.73
69503;SHT31;56704;54.242;12.442;2023-06-05T03:10:59;9.53;78.99
69503;SHT31;56704;54.242;12.442;2023-06-05T03:13:27;9.43;78.98
69503;SHT31;56704;54.242;12.442;2023-06-05T03:15:53;9.34;78.93
69503;SHT31;56704;54.242;12.442;2023-06-05T03:18:22;9.27;79.57
69503;SHT31;56704;54.242;12.442;2023-06-05T03:20:49;9.22;80.28
69503;SHT31;56704;54.242;12.442;2023-06-05T03:23:18;9.18;80.35
69503;SHT31;56704;54.242;12.442;2023-06-05T03:25:44;9.17;81.13
69503;SHT31;56704;54.242;12.442;2023-06-05T03:28:11;9.08;81.23
69503;SHT31;56704;54.242;12.442;2023-06-05T03:30:37;9.05;81.29
69503;SHT31;56704;54.242;12.442;2023-06-05T03:33:05;9.08;81.42
69503;SHT31;56704;54.242;12.442;2023-06-05T03:35:32;9.17;81.28
69503;SHT31;56704;54.242;12.442;2023-06-05T03:38:00;9.22;81.43
69503;SHT31;56704;54.242;12.442;2023-06-05T03:40:28;9.27;82.02
69503;SHT31;56704;54.242;12.442;2023-06-05T03:42:55;9.21;82.00
69503;SHT31;56704;54.242;12.442;2023-06-05T03:45:22;9.20;82.31
69503;SHT31;56704;54.242;12.442;2023-06-05T03:47:51;9.21;82.32
69503;SHT31;56704;54.242;12.442;2023-06-05T03:50:19;9.27;81.91
69503;SHT31;56704;54.242;12.442;2023-06-05T03:52:46;9.34;81.99
69503;SHT31;56704;54.242;12.442;2023-06-05T03:55:18;9.31;81.83
69503;SHT31;56704;54.242;12.442;2023-06-05T03:57:47;9.32;82.00
69503;SHT31;56704;54.242;12.442;2023-06-05T04:00:14;9.32;82.14
69503;SHT31;56704;54.242;12.442;2023-06-05T04:02:42;9.38;81.87
69503;SHT31;56704;54.242;12.442;2023-06-05T04:05:08;9.42;81.46
69503;SHT31;56704;54.242;12.442;2023-06-05T04:07:37;9.58;82.85
69503;SHT31;56704;54.242;12.442;2023-06-05T04:10:04;9.62;82.01
69503;SHT31;56704;54.242;12.442;2023-06-05T04:12:31;9.82;82.53
69503;SHT31;56704;54.242;12.442;2023-06-05T04:14:59;10.00;82.35
69503;SHT31;56704;54.242;12.442;2023-06-05T04:17:26;10.13;81.62
69503;SHT31;56704;54.242;12.442;2023-06-05T04:19:52;10.18;81.63
69503;SHT31;56704;54.242;12.442;2023-06-05T04:22:19;10.24;81.65
69503;SHT31;56704;54.242;12.442;2023-06-05T04:24:45;10.31;81.41
69503;SHT31;56704;54.242;12.442;2023-06-05T04:27:12;10.41;81.03
69503;SHT31;56704;54.242;12.442;2023-06-05T04:29:39;10.64;81.59
69503;SHT31;56704;54.242;12.442;2023-06-05T04:32:07;10.82;81.64
69503;SHT31;56704;54.242;12.442;2023-06-05T04:34:34;10.86;80.48
69503;SHT31;56704;54.242;12.442;2023-06-05T04:37:00;10.93;81.07
69503;SHT31;56704;54.242;12.442;2023-06-05T04:39:28;11.09;81.29
69503;SHT31;56704;54.242;12.442;2023-06-05T04:41:55;11.10;81.43
69503;SHT31;56704;54.242;12.442;2023-06-05T04:44:22;11.16;81.37
69503;SHT31;56704;54.242;12.442;2023-06-05T04:46:49;11.23;81.66
69503;SHT31;56704;54.242;12.442;2023-06-05T04:49:18;11.39;82.15
69503;SHT31;56704;54.242;12.442;2023-06-05T04:51:45;11.46;81.97
69503;SHT31;56704;54.242;12.442;2023-06-05T04:54:11;11.63;82.22
69503;SHT31;56704;54.242;12.442;2023-06-05T04:56:38;11.66;81.44
69503;SHT31;56704;54.242;12.442;2023-06-05T04:59:04;11.74;81.07
69503;SHT31;56704;54.242;12.442;2023-06-05T05:01:31;11.75;81.27
69503;SHT31;56704;54.242;12.442;2023-06-05T05:03:58;11.90;81.70
69503;SHT31;56704;54.242;12.442;2023-06-05T05:06:26;11.97;81.54
69503;SHT31;56704;54.242;12.442;2023-06-05T05:08:52;12.08;81.74
69503;SHT31;56704;54.242;12.442;2023-06-05T05:11:19;12.19;81.48
69503;SHT31;56704;54.242;12.442;2023-06-05T05:13:46;12.26;80.99
69503;SHT31;56704;54.242;12.442;2023-06-05T05:16:13;12.38;81.03
69503;SHT31;56704;54.242;12.442;2023-06-05T05:18:43;12.59;81.40
69503;SHT31;56704;54.242;12.442;2023-06-05T05:21:09;12.66;81.30
69503;SHT31;56704;54.242;12.442;2023-06-05T05:23:38;12.83;81.37
69503;SHT31;56704;54.242;12.442;2023-06-05T05:26:04;12.99;80.79
69503;SHT31;56704;54.242;12.442;2023-06-05T05:28:31;13.15;80.85
69503;SHT31;56704;54.242;12.442;2023-06-05T05:30:57;13.25;80.30
69503;SHT31;56704;54.242;12.442;2023-06-05T05:33:25;13.30;80.58
69503;SHT31;56704;54.242;12.442;2023-06-05T05:35:52;13.61;81.15
69503;SHT31;56704;54.242;12.442;2023-06-05T05:38:18;13.78;80.75
69503;SHT31;56704;54.242;12.442;2023-06-05T05:40:46;13.91;80.95
69503;SHT31;56704;54.242;12.442;2023-06-05T05:43:13;13.99;80.78
69503;SHT31;56704;54.242;12.442;2023-06-05T05:45:40;14.14;80.61
69503;SHT31;56704;54.242;12.442;2023-06-05T05:48:09;14.37;80.56
69503;SHT31;56704;54.242;12.442;2023-06-05T05:50:36;14.44;80.12
69503;SHT31;56704;54.242;12.442;2023-06-05T05:53:03;14.61;79.84
69503;SHT31;56704;54.242;12.442;2023-06-05T05:55:29;14.67;79.44
69503;SHT31;56704;54.242;12.442;2023-06-05T05:57:57;14.77;78.88
69503;SHT31;56704;54.242;12.442;2023-06-05T06:00:24;14.82;78.57
69503;SHT31;56704;54.242;12.442;2023-06-05T06:02:51;14.96;78.89
69503;SHT31;56704;54.242;12.442;2023-06-05T06:05:18;15.02;78.43
69503;SHT31;56704;54.242;12.442;2023-06-05T06:07:45;15.16;79.06
69503;SHT31;56704;54.242;12.442;2023-06-05T06:10:13;15.28;79.53
69503;SHT31;56704;54.242;12.442;2023-06-05T06:12:40;15.32;78.87
69503;SHT31;56704;54.242;12.442;2023-06-05T06:15:09;15.42;78.71
69503;SHT31;56704;54.242;12.442;2023-06-05T06:17:36;15.50;78.51
69503;SHT31;56704;54.242;12.442;2023-06-05T06:20:04;15.63;78.48
69503;SHT31;56704;54.242;12.442;2023-06-05T06:22:32;15.67;78.29
69503;SHT31;56704;54.242;12.442;2023-06-05T06:24:58;15.71;78.49
69503;SHT31;56704;54.242;12.442;2023-06-05T06:27:25;15.76;78.52
69503;SHT31;56704;54.242;12.442;2023-06-05T06:29:52;15.86;77.75
69503;SHT31;56704;54.242;12.442;2023-06-05T06:32:20;15.87;77.56
69503;SHT31;56704;54.242;12.442;2023-06-05T06:34:48;15.96;77.27
69503;SHT31;56704;54.242;12.442;2023-06-05T06:37:15;16.08;76.73
69503;SHT31;56704;54.242;12.442;2023-06-05T06:39:42;16.08;74.76
69503;SHT31;56704;54.242;12.442;2023-06-05T06:42:09;16.11;74.42
69503;SHT31;56704;54.242;12.442;2023-06-05T06:44:36;16.18;71.41
69503;SHT31;56704;54.242;12.442;2023-06-05T06:47:03;16.25;70.51
69503;SHT31;56704;54.242;12.442;2023-06-05T06:49:32;16.30;72.16
69503;SHT31;56704;54.242;12.442;2023-06-05T06:51:59;16.33;69.23
69503;SHT31;56704;54.242;12.442;2023-06-05T06:54:26;16.41;68.96
69503;SHT31;56704;54.242;12.442;2023-06-05T06:56:54;16.45;68.15
69503;SHT31;56704;54.242;12.442;2023-06-05T06:59:20;16.45;67.29
69503;SHT31;56704;54.242;12.442;2023-06-05T07:02:07;16.52;69.50
69503;SHT31;56704;54.242;12.442;2023-06-05T07:04:35;16.55;69.38
69503;SHT31;56704;54.242;12.442;2023-06-05T07:07:02;16.68;68.82
69503;SHT31;56704;54.242;12.442;2023-06-05T07:09:29;16.80;69.26
69503;SHT31;56704;54.242;12.442;2023-06-05T07:11:56;16.91;68.59
69503;SHT31;56704;54.242;12.442;2023-06-05T07:14:24;16.99;68.84
69503;SHT31;56704;54.242;12.442;2023-06-05T07:16:50;17.08;69.11
69503;SHT31;56704;54.242;12.442;2023-06-05T07:19:21;17.31;69.23
69503;SHT31;56704;54.242;12.442;2023-06-05T07:21:49;17.51;68.44
69503;SHT31;56704;54.242;12.442;2023-06-05T07:24:16;17.78;67.10
69503;SHT31;56704;54.242;12.442;2023-06-05T07:26:43;17.98;65.95
69503;SHT31;56704;54.242;12.442;2023-06-05T07:29:10;18.37;64.50
69503;SHT31;56704;54.242;12.442;2023-06-05T07:31:36;19.01;63.87
69503;SHT31;56704;54.242;12.442;2023-06-05T07:34:04;19.46;60.88
69503;SHT31;56704;54.242;12.442;2023-06-05T07:36:30;19.94;55.97
69503;SHT31;56704;54.242;12.442;2023-06-05T07:38:59;20.51;58.14
69503;SHT31;56704;54.242;12.442;2023-06-05T07:41:26;21.00;55.35
69503;SHT31;56704;54.242;12.442;2023-06-05T07:43:53;21.31;54.56
69503;SHT31;56704;54.242;12.442;2023-06-05T07:46:20;21.78;53.42
69503;SHT31;56704;54.242;12.442;2023-06-05T07:48:46;21.68;52.37
69503;SHT31;56704;54.242;12.442;2023-06-05T07:51:13;22.09;51.60
69503;SHT31;56704;54.242;12.442;2023-06-05T07:53:39;22.20;50.37
69503;SHT31;56704;54.242;12.442;2023-06-05T07:56:07;22.40;51.28
69503;SHT31;56704;54.242;12.442;2023-06-05T07:58:34;22.98;48.48
69503;SHT31;56704;54.242;12.442;2023-06-05T08:01:01;22.56;47.77
69503;SHT31;56704;54.242;12.442;2023-06-05T08:03:32;23.15;48.03
69503;SHT31;56704;54.242;12.442;2023-06-05T08:05:58;22.94;47.16
69503;SHT31;56704;54.242;12.442;2023-06-05T08:08:28;23.10;47.94
69503;SHT31;56704;54.242;12.442;2023-06-05T08:10:55;22.59;47.87
69503;SHT31;56704;54.242;12.442;2023-06-05T08:13:23;22.91;48.12
69503;SHT31;56704;54.242;12.442;2023-06-05T08:15:52;22.50;46.86
69503;SHT31;56704;54.242;12.442;2023-06-05T08:18:18;22.61;48.46
69503;SHT31;56704;54.242;12.442;2023-06-05T08:20:46;22.74;47.83
69503;SHT31;56704;54.242;12.442;2023-06-05T08:23:13;22.61;47.19
69503;SHT31;56704;54.242;12.442;2023-06-05T08:25:42;22.83;47.87
69503;SHT31;56704;54.242;12.442;2023-06-05T08:28:08;23.38;45.74
69503;SHT31;56704;54.242;12.442;2023-06-05T08:30:36;22.90;45.88
69503;SHT31;56704;54.242;12.442;2023-06-05T08:33:03;22.84;46.25
69503;SHT31;56704;54.242;12.442;2023-06-05T08:35:30;22.57;46.83
69503;SHT31;56704;54.242;12.442;2023-06-05T08:37:56;22.64;46.35
69503;SHT31;56704;54.242;12.442;2023-06-05T08:40:25;22.95;45.70
69503;SHT31;56704;54.242;12.442;2023-06-05T08:42:53;23.05;45.31
69503;SHT31;56704;54.242;12.442;2023-06-05T08:45:20;22.86;45.77
69503;SHT31;56704;54.242;12.442;2023-06-05T08:47:49;22.46;46.68
69503;SHT31;56704;54.242;12.442;2023-06-05T08:50:16;22.26;47.44
69503;SHT31;56704;54.242;12.442;2023-06-05T08:52:43;22.49;46.46
69503;SHT31;56704;54.242;12.442;2023-06-05T08:55:12;21.98;48.09
69503;SHT31;56704;54.242;12.442;2023-06-05T08:57:40;21.95;48.94
69503;SHT31;56704;54.242;12.442;2023-06-05T09:00:08;21.74;48.96
69503;SHT31;56704;54.242;12.442;2023-06-05T09:02:38;21.78;48.48
69503;SHT31;56704;54.242;12.442;2023-06-05T09:05:07;21.95;47.84
69503;SHT31;56704;54.242;12.442;2023-06-05T09:07:34;22.09;47.49
69503;SHT31;56704;54.242;12.442;2023-06-05T09:10:02;22.29;47.65
69503;SHT31;56704;54.242;12.442;2023-06-05T09:12:28;22.08;47.76
69503;SHT31;56704;54.242;12.442;2023-06-05T09:14:55;22.16;48.25
69503;SHT31;56704;54.242;12.442;2023-06-05T09:17:21;22.28;47.09
69503;SHT31;56704;54.242;12.442;2023-06-05T09:19:48;22.22;46.58
69503;SHT31;56704;54.242;12.442;2023-06-05T09:22:32;22.25;46.83
69503;SHT31;56704;54.242;12.442;2023-06-05T09:25:00;22.30;46.53
69503;SHT31;56704;54.242;12.442;2023-06-05T09:27:27;22.35;46.46
69503;SHT31;56704;54.242;12.442;2023-06-05T09:30:02;22.36;46.87
69503;SHT31;56704;54.242;12.442;2023-06-05T09:32:29;22.49;47.20
69503;SHT31;56704;54.242;12.442;2023-06-05T09:34:56;22.66;46.42
69503;SHT31;56704;54.242;12.442;2023-06-05T09:37:34;22.71;45.53
69503;SHT31;56704;54.242;12.442;2023-06-05T09:40:02;22.74;44.98
69503;SHT31;56704;54.242;12.442;2023-06-05T09:42:33;22.70;45.26
69503;SHT31;56704;54.242;12.442;2023-06-05T09:45:01;22.66;44.68
69503;SHT31;56704;54.242;12.442;2023-06-05T09:47:29;22.52;45.68
69503;SHT31;56704;54.242;12.442;2023-06-05T09:49:56;22.46;45.82
69503;SHT31;56704;54.242;12.442;2023-06-05T09:52:23;22.54;45.85
69503;SHT31;56704;54.242;12.442;2023-06-05T09:54:54;22.45;46.71
69503;SHT31;56704;54.242;12.442;2023-06-05T09:57:24;22.30;46.26
69503;SHT31;56704;54.242;12.442;2023-06-05T09:59:53;22.25;46.73
69503;SHT31;56704;54.242;12.442;2023-06-05T10:02:21;22.39;45.84
69503;SHT31;56704;54.242;12.442;2023-06-05T10:04:54;22.35;45.26
69503;SHT31;56704;54.242;12.442;2023-06-05T10:07:23;22.49;45.82
69503;SHT31;56704;54.242;12.442;2023-06-05T10:09:52;22.53;45.52
69503;SHT31;56704;54.242;12.442;2023-06-05T10:12:20;22.47;46.35
69503;SHT31;56704;54.242;12.442;2023-06-05T10:14:49;22.63;45.18
69503;SHT31;56704;54.242;12.442;2023-06-05T10:17:16;22.42;45.03
69503;SHT31;56704;54.242;12.442;2023-06-05T10:19:43;22.64;45.07
69503;SHT31;56704;54.242;12.442;2023-06-05T10:22:10;22.60;44.32
69503;SHT31;56704;54.242;12.442;2023-06-05T10:24:39;22.73;44.36
69503;SHT31;56704;54.242;12.442;2023-06-05T10:27:35;22.76;44.70
69503;SHT31;56704;54.242;12.442;2023-06-05T10:30:23;22.78;44.30
69503;SHT31;56704;54.242;12.442;2023-06-05T10:33:02;22.84;44.41
69503;SHT31;56704;54.242;12.442;2023-06-05T10:35:41;22.78;41.97
69503;SHT31;56704;54.242;12.442;2023-06-05T10:38:16;22.60;42.79
69503;SHT31;56704;54.242;12.442;2023-06-05T10:40:45;22.78;42.82
69503;SHT31;56704;54.242;12.442;2023-06-05T10:43:46;22.64;42.02
69503;SHT31;56704;54.242;12.442;2023-06-05T10:46:30;22.84;42.39
69503;SHT31;56704;54.242;12.442;2023-06-05T10:49:10;22.91;42.24
69503;SHT31;56704;54.242;12.442;2023-06-05T10:51:39;23.03;41.59
69503;SHT31;56704;54.242;12.442;2023-06-05T10:54:08;23.32;42.72
69503;SHT31;56704;54.242;12.442;2023-06-05T10:56:57;23.32;41.01
69503;SHT31;56704;54.242;12.442;2023-06-05T10:59:28;23.38;41.73
69503;SHT31;56704;54.242;12.442;2023-06-05T11:02:26;23.34;42.54
69503;SHT31;56704;54.242;12.442;2023-06-05T11:05:03;23.18;42.19
69503;SHT31;56704;54.242;12.442;2023-06-05T11:07:30;23.08;42.88
69503;SHT31;56704;54.242;12.442;2023-06-05T11:10:15;23.34;43.08
69503;SHT31;56704;54.242;12.442;2023-06-05T11:12:58;23.62;43.30
69503;SHT31;56704;54.242;12.442;2023-06-05T11:15:42;23.54;41.55
69503;SHT31;56704;54.242;12.442;2023-06-05T11:18:37;23.94;40.77
69503;SHT31;56704;54.242;12.442;2023-06-05T11:21:05;23.80;38.76
69503;SHT31;56704;54.242;12.442;2023-06-05T11:23:32;24.06;38.92
69503;SHT31;56704;54.242;12.442;2023-06-05T11:29:10;24.86;38.81
69503;SHT31;56704;54.242;12.442;2023-06-05T11:31:39;24.58;39.15
69503;SHT31;56704;54.242;12.442;2023-06-05T11:34:11;24.72;37.35
69503;SHT31;56704;54.242;12.442;2023-06-05T11:36:38;25.13;37.72
69503;SHT31;56704;54.242;12.442;2023-06-05T11:39:05;25.19;38.13
69503;SHT31;56704;54.242;12.442;2023-06-05T11:41:33;25.03;38.69
69503;SHT31;56704;54.242;12.442;2023-06-05T11:44:00;25.08;38.10
69503;SHT31;56704;54.242;12.442;2023-06-05T11:46:36;25.32;38.70
69503;SHT31;56704;54.242;12.442;2023-06-05T11:49:05;25.53;37.41
69503;SHT31;56704;54.242;12.442;2023-06-05T11:51:32;25.77;36.34
69503;SHT31;56704;54.242;12.442;2023-06-05T11:54:00;25.92;35.34
69503;SHT31;56704;54.242;12.442;2023-06-05T11:56:27;26.00;34.03
69503;SHT31;56704;54.242;12.442;2023-06-05T11:58:54;26.05;33.54
69503;SHT31;56704;54.242;12.442;2023-06-05T12:01:21;26.26;34.31
69503;SHT31;56704;54.242;12.442;2023-06-05T12:03:49;26.26;34.85
69503;SHT31;56704;54.242;12.442;2023-06-05T12:06:17;26.36;35.91
69503;SHT31;56704;54.242;12.442;2023-06-05T12:08:47;26.49;36.25
69503;SHT31;56704;54.242;12.442;2023-06-05T12:11:22;26.55;36.33
69503;SHT31;56704;54.242;12.442;2023-06-05T12:13:50;26.84;34.31
69503;SHT31;56704;54.242;12.442;2023-06-05T12:16:18;26.72;35.14
69503;SHT31;56704;54.242;12.442;2023-06-05T12:18:46;26.59;36.11
69503;SHT31;56704;54.242;12.442;2023-06-05T12:21:22;26.39;37.66
69503;SHT31;56704;54.242;12.442;2023-06-05T12:23:49;26.45;37.94
69503;SHT31;56704;54.242;12.442;2023-06-05T12:26:17;26.52;36.82
69503;SHT31;56704;54.242;12.442;2023-06-05T12:28:44;26.41;37.40
69503;SHT31;56704;54.242;12.442;2023-06-05T12:31:32;26.21;37.15
69503;SHT31;56704;54.242;12.442;2023-06-05T12:34:00;26.17;36.42
69503;SHT31;56704;54.242;12.442;2023-06-05T12:36:29;25.91;36.24
69503;SHT31;56704;54.242;12.442;2023-06-05T12:39:02;25.40;36.55
69503;SHT31;56704;54.242;12.442;2023-06-05T12:41:31;25.37;37.85
69503;SHT31;56704;54.242;12.442;2023-06-05T12:44:01;25.33;39.06
69503;SHT31;56704;54.242;12.442;2023-06-05T12:46:29;25.11;37.81
69503;SHT31;56704;54.242;12.442;2023-06-05T12:48:56;25.33;38.96
69503;SHT31;56704;54.242;12.442;2023-06-05T12:51:23;25.44;37.24
69503;SHT31;56704;54.242;12.442;2023-06-05T12:53:52;25.46;35.61
69503;SHT31;56704;54.242;12.442;2023-06-05T12:56:20;25.62;35.82
69503;SHT31;56704;54.242;12.442;2023-06-05T12:58:51;25.63;35.37
69503;SHT31;56704;54.242;12.442;2023-06-05T13:01:17;25.47;35.86
69503;SHT31;56704;54.242;12.442;2023-06-05T13:03:44;25.42;35.68
69503;SHT31;56704;54.242;12.442;2023-06-05T13:06:11;25.34;35.59
69503;SHT31;56704;54.242;12.442;2023-06-05T13:08:37;25.64;35.50
69503;SHT31;56704;54.242;12.442;2023-06-05T13:11:05;25.94;33.57
69503;SHT31;56704;54.242;12.442;2023-06-05T13:13:32;25.77;32.29
69503;SHT31;56704;54.242;12.442;2023-06-05T13:15:59;25.67;33.22
69503;SHT31;56704;54.242;12.442;2023-06-05T13:18:27;25.83;34.73
69503;SHT31;56704;54.242;12.442;2023-06-05T13:20:53;26.17;34.61
69503;SHT31;56704;54.242;12.442;2023-06-05T13:23:20;26.28;32.44
69503;SHT31;56704;54.242;12.442;2023-06-05T13:25:47;26.33;31.77
69503;SHT31;56704;54.242;12.442;2023-06-05T13:28:15;26.45;32.37
69503;SHT31;56704;54.242;12.442;2023-06-05T13:30:42;26.36;34.03
69503;SHT31;56704;54.242;12.442;2023-06-05T13:33:08;26.14;34.39
69503;SHT31;56704;54.242;12.442;2023-06-05T13:35:35;25.85;35.60
69503;SHT31;56704;54.242;12.442;2023-06-05T13:38:01;25.50;35.27
69503;SHT31;56704;54.242;12.442;2023-06-05T13:40:28;25.44;33.69
69503;SHT31;56704;54.242;12.442;2023-06-05T13:42:57;25.49;34.37
69503;SHT31;56704;54.242;12.442;2023-06-05T13:45:25;25.57;35.41
69503;SHT31;56704;54.242;12.442;2023-06-05T13:47:52;25.34;33.57
69503;SHT31;56704;54.242;12.442;2023-06-05T13:50:19;25.19;35.74
69503;SHT31;56704;54.242;12.442;2023-06-05T13:52:46;25.62;35.65
69503;SHT31;56704;54.242;12.442;2023-06-05T13:55:13;26.01;32.95
69503;SHT31;56704;54.242;12.442;2023-06-05T13:57:40;25.92;34.00
69503;SHT31;56704;54.242;12.442;2023-06-05T14:00:08;26.05;34.87
69503;SHT31;56704;54.242;12.442;2023-06-05T14:02:36;26.05;35.23
69503;SHT31;56704;54.242;12.442;2023-06-05T14:05:02;25.90;33.01
69503;SHT31;56704;54.242;12.442;2023-06-05T14:07:29;25.64;34.64
69503;SHT31;56704;54.242;12.442;2023-06-05T14:09:56;25.84;35.17
69503;SHT31;56704;54.242;12.442;2023-06-05T14:12:23;25.97;34.42
69503;SHT31;56704;54.242;12.442;2023-06-05T14:14:50;26.11;34.95
69503;SHT31;56704;54.242;12.442;2023-06-05T14:17:16;26.35;33.67
69503;SHT31;56704;54.242;12.442;2023-06-05T14:19:44;26.21;34.63
69503;SHT31;56704;54.242;12.442;2023-06-05T14:22:11;26.17;33.37
69503;SHT31;56704;54.242;12.442;2023-06-05T14:24:39;26.15;34.26
69503;SHT31;56704;54.242;12.442;2023-06-05T14:27:06;25.87;35.04
69503;SHT31;56704;54.242;12.442;2023-06-05T14:29:36;25.78;34.98
69503;SHT31;56704;54.242;12.442;2023-06-05T14:32:02;25.75;35.07
69503;SHT31;56704;54.242;12.442;2023-06-05T14:34:29;25.44;33.50
69503;SHT31;56704;54.242;12.442;2023-06-05T14:36:57;25.32;34.37
69503;SHT31;56704;54.242;12.442;2023-06-05T14:39:24;25.51;33.50
69503;SHT31;56704;54.242;12.442;2023-06-05T14:41:51;25.57;33.73
69503;SHT31;56704;54.242;12.442;2023-06-05T14:44:17;25.81;33.34
69503;SHT31;56704;54.242;12.442;2023-06-05T14:46:44;25.91;32.82
69503;SHT31;56704;54.242;12.442;2023-06-05T14:49:12;25.19;32.19
69503;SHT31;56704;54.242;12.442;2023-06-05T14:51:38;25.23;32.96
69503;SHT31;56704;54.242;12.442;2023-06-05T14:54:06;25.59;32.93
69503;SHT31;56704;54.242;12.442;2023-06-05T14:56:33;25.50;32.67
69503;SHT31;56704;54.242;12.442;2023-06-05T14:58:59;25.75;32.39
69503;SHT31;56704;54.242;12.442;2023-06-05T15:01:26;25.40;32.57
69503;SHT31;56704;54.242;12.442;2023-06-05T15:03:53;25.34;33.27
69503;SHT31;56704;54.242;12.442;2023-06-05T15:06:19;24.95;34.80
69503;SHT31;56704;54.242;12.442;2023-06-05T15:08:46;24.88;34.44
69503;SHT31;56704;54.242;12.442;2023-06-05T15:11:14;24.71;34.51
69503;SHT31;56704;54.242;12.442;2023-06-05T15:13:40;24.74;34.17
69503;SHT31;56704;54.242;12.442;2023-06-05T15:16:08;24.28;33.53
69503;SHT31;56704;54.242;12.442;2023-06-05T15:18:34;24.28;33.62
69503;SHT31;56704;54.242;12.442;2023-06-05T15:21:01;24.61;33.45
69503;SHT31;56704;54.242;12.442;2023-06-05T15:23:30;24.37;35.82
69503;SHT31;56704;54.242;12.442;2023-06-05T15:25:56;24.68;35.62
69503;SHT31;56704;54.242;12.442;2023-06-05T15:28:24;24.78;34.50